sensor_id;sensor_type;location;lat;lon;timestamp;pressure;altitude;pressure_sealevel;temperature;humidity
80335;BME280;69653;52.674;13.574;2023-06-10T00:01:17;100805.72;;;15.21;73.47
80335;BME280;69653;52.674;13.574;2023-06-10T00:03:44;100813.97;;;15.21;73.45
80335;BME280;69653;52.674;13.574;2023-06-10T00:06:11;100809.13;;;15.18;73.41
80335;BME280;69653;52.674;13.574;2023-06-10T00:08:37;100805.84;;;15.07;73.85
80335;BME280;69653;52.674;13.574;2023-06-10T00:11:05;100831.78;;;15.24;73.90
80335;BME280;69653;52.674;13.574;2023-06-10T00:13:32;100822.53;;;15.20;74.05
80335;BME280;69653;52.674;13.574;2023-06-10T00:16:00;100807.97;;;15.11;73.86
80335;BME280;69653;52.674;13.574;2023-06-10T00:18:26;100786.28;;;14.92;73.97
80335;BME280;69653;52.674;13.574;2023-06-10T00:20:53;100812.19;;;15.08;74.00
80335;BME280;69653;52.674;13.574;2023-06-10T00:23:21;100819.47;;;15.04;74.77
80335;BME280;69653;52.674;13.574;2023-06-10T00:26:10;100814.63;;;15.01;74.50
80335;BME280;69653;52.674;13.574;2023-06-10T00:28:38;100801.81;;;14.88;75.41
80335;BME280;69653;52.674;13.574;2023-06-10T00:31:04;100789.66;;;14.72;75.04
80335;BME280;69653;52.674;13.574;2023-06-10T00:33:31;100791.75;;;14.75;75.16
80335;BME280;69653;52.674;13.574;2023-06-10T00:35:59;100811.22;;;14.87;74.94
80335;BME280;69653;52.674;13.574;2023-06-10T00:38:27;100819.47;;;14.87;75.42
80335;BME280;69653;52.674;13.574;2023-06-10T00:40:55;100782.03;;;14.60;75.63
80335;BME280;69653;52.674;13.574;2023-06-10T00:43:26;100798.22;;;14.70;75.82
80335;BME280;69653;52.674;13.574;2023-06-10T00:45:55;100803.75;;;14.79;75.45
80335;BME280;69653;52.674;13.574;2023-06-10T00:48:22;100774.91;;;14.50;76.05
80335;BME280;69653;52.674;13.574;2023-06-10T00:50:48;100807.78;;;14.64;75.86
80335;BME280;69653;52.674;13.574;2023-06-10T00:53:19;100812.97;;;14.57;76.44
80335;BME280;69653;52.674;13.574;2023-06-10T00:55:50;100805.81;;;14.47;76.86
80335;BME280;69653;52.674;13.574;2023-06-10T00:58:20;100796.56;;;14.35;76.79
80335;BME280;69653;52.674;13.574;2023-06-10T01:00:52;100805.63;;;14.35;77.07
80335;BME280;69653;52.674;13.574;2023-06-10T01:03:20;100812.75;;;14.36;77.53
80335;BME280;69653;52.674;13.574;2023-06-10T01:06:14;100813.97;;;14.30;77.66
80335;BME280;69653;52.674;13.574;2023-06-10T01:08:56;100799.53;;;14.16;77.78
80335;BME280;69653;52.674;13.574;2023-06-10T01:11:43;100819.00;;;14.28;77.79
80335;BME280;69653;52.674;13.574;2023-06-10T01:14:18;100785.44;;;14.09;77.93
80335;BME280;69653;52.674;13.574;2023-06-10T01:16:44;100803.06;;;14.08;78.13
80335;BME280;69653;52.674;13.574;2023-06-10T01:19:14;100814.41;;;14.15;78.30
80335;BME280;69653;52.674;13.574;2023-06-10T01:21:46;100790.59;;;14.02;78.16
80335;BME280;69653;52.674;13.574;2023-06-10T01:24:16;100806.97;;;14.16;78.13
80335;BME280;69653;52.674;13.574;2023-06-10T01:26:45;100810.59;;;14.25;77.49
80335;BME280;69653;52.674;13.574;2023-06-10T01:29:31;100791.94;;;14.13;77.49
80335;BME280;69653;52.674;13.574;2023-06-10T01:32:08;100824.81;;;14.27;77.93
80335;BME280;69653;52.674;13.574;2023-06-10T01:34:43;100834.84;;;14.23;77.82
80335;BME280;69653;52.674;13.574;2023-06-10T01:37:16;100827.00;;;14.07;78.29
80335;BME280;69653;52.674;13.574;2023-06-10T01:39:47;100806.88;;;13.90;78.54
80335;BME280;69653;52.674;13.574;2023-06-10T01:42:15;100809.47;;;13.86;78.79
80335;BME280;69653;52.674;13.574;2023-06-10T01:44:52;100828.22;;;13.93;78.98
80335;BME280;69653;52.674;13.574;2023-06-10T01:47:23;100833.25;;;13.91;79.15
80335;BME280;69653;52.674;13.574;2023-06-10T01:49:53;100800.31;;;13.69;79.27
80335;BME280;69653;52.674;13.574;2023-06-10T01:52:21;100788.63;;;13.63;79.70
80335;BME280;69653;52.674;13.574;2023-06-10T01:54:53;100799.38;;;13.73;79.50
80335;BME280;69653;52.674;13.574;2023-06-10T01:57:22;100797.56;;;13.69;79.52
80335;BME280;69653;52.674;13.574;2023-06-10T01:59:50;100805.00;;;13.68;79.60
80335;BME280;69653;52.674;13.574;2023-06-10T02:02:16;100841.00;;;13.89;79.64
80335;BME280;69653;52.674;13.574;2023-06-10T02:04:48;100812.72;;;13.66;79.62
80335;BME280;69653;52.674;13.574;2023-06-10T02:07:17;100818.09;;;13.71;79.84
80335;BME280;69653;52.674;13.574;2023-06-10T02:09:46;100831.38;;;13.78;79.82
80335;BME280;69653;52.674;13.574;2023-06-10T02:12:13;100839.63;;;13.78;79.81
80335;BME280;69653;52.674;13.574;2023-06-10T02:14:39;100841.91;;;13.76;79.84
80335;BME280;69653;52.674;13.574;2023-06-10T02:17:11;100804.75;;;13.56;80.02
80335;BME280;69653;52.674;13.574;2023-06-10T02:19:41;100840.09;;;13.71;79.88
80335;BME280;69653;52.674;13.574;2023-06-10T02:22:21;100833.13;;;13.65;79.92
80335;BME280;69653;52.674;13.574;2023-06-10T02:24:50;100824.81;;;13.56;80.10
80335;BME280;69653;52.674;13.574;2023-06-10T02:27:20;100851.19;;;13.66;80.21
80335;BME280;69653;52.674;13.574;2023-06-10T02:29:50;100840.38;;;13.61;80.06
80335;BME280;69653;52.674;13.574;2023-06-10T02:32:21;100807.44;;;13.47;79.86
80335;BME280;69653;52.674;13.574;2023-06-10T02:35:07;100844.78;;;13.71;79.68
80335;BME280;69653;52.674;13.574;2023-06-10T02:37:41;100845.59;;;13.71;79.95
80335;BME280;69653;52.674;13.574;2023-06-10T02:40:29;100847.03;;;13.69;79.93
80335;BME280;69653;52.674;13.574;2023-06-10T02:43:21;100848.66;;;13.70;80.05
80335;BME280;69653;52.674;13.574;2023-06-10T02:46:28;100803.56;;;13.40;80.00
80335;BME280;69653;52.674;13.574;2023-06-10T02:49:34;100819.25;;;13.48;80.04
80335;BME280;69653;52.674;13.574;2023-06-10T02:52:06;100810.97;;;13.39;80.38
80335;BME280;69653;52.674;13.574;2023-06-10T02:54:40;100839.19;;;13.53;80.65
80335;BME280;69653;52.674;13.574;2023-06-10T02:57:12;100835.91;;;13.51;80.51
80335;BME280;69653;52.674;13.574;2023-06-10T02:59:44;100828.94;;;13.45;80.51
80335;BME280;69653;52.674;13.574;2023-06-10T03:02:32;100818.69;;;13.37;80.36
80335;BME280;69653;52.674;13.574;2023-06-10T03:05:06;100832.16;;;13.47;80.53
80335;BME280;69653;52.674;13.574;2023-06-10T03:07:52;100838.19;;;13.49;80.73
80335;BME280;69653;52.674;13.574;2023-06-10T03:10:38;100824.09;;;13.42;80.39
80335;BME280;69653;52.674;13.574;2023-06-10T03:13:07;100837.19;;;13.45;80.50
80335;BME280;69653;52.674;13.574;2023-06-10T03:15:36;100834.50;;;13.32;80.81
80335;BME280;69653;52.674;13.574;2023-06-10T03:18:08;100803.59;;;13.26;80.43
80335;BME280;69653;52.674;13.574;2023-06-10T03:20:34;100831.81;;;13.40;80.32
80335;BME280;69653;52.674;13.574;2023-06-10T03:23:09;100848.06;;;13.50;80.64
80335;BME280;69653;52.674;13.574;2023-06-10T03:25:36;100822.72;;;13.31;80.42
80335;BME280;69653;52.674;13.574;2023-06-10T03:28:06;100839.63;;;13.47;80.51
80335;BME280;69653;52.674;13.574;2023-06-10T03:30:33;100846.50;;;13.58;79.81
80335;BME280;69653;52.674;13.574;2023-06-10T03:33:03;100832.13;;;13.61;79.44
80335;BME280;69653;52.674;13.574;2023-06-10T03:35:38;100816.84;;;13.46;79.91
80335;BME280;69653;52.674;13.574;2023-06-10T03:38:12;100839.84;;;13.59;79.80
80335;BME280;69653;52.674;13.574;2023-06-10T03:40:43;100838.66;;;13.51;79.93
80335;BME280;69653;52.674;13.574;2023-06-10T03:43:10;100839.19;;;13.53;79.88
80335;BME280;69653;52.674;13.574;2023-06-10T03:45:39;100851.34;;;13.61;79.82
80335;BME280;69653;52.674;13.574;2023-06-10T03:48:06;100835.34;;;13.63;79.19
80335;BME280;69653;52.674;13.574;2023-06-10T03:50:36;100841.84;;;13.67;78.95
80335;BME280;69653;52.674;13.574;2023-06-10T03:53:05;100832.66;;;13.72;78.79
80335;BME280;69653;52.674;13.574;2023-06-10T03:55:36;100851.50;;;13.87;78.70
80335;BME280;69653;52.674;13.574;2023-06-10T03:58:03;100835.78;;;13.79;78.37
80335;BME280;69653;52.674;13.574;2023-06-10T04:00:32;100841.28;;;13.79;78.52
80335;BME280;69653;52.674;13.574;2023-06-10T04:03:12;100838.00;;;13.99;77.69
80335;BME280;69653;52.674;13.574;2023-06-10T04:05:43;100851.81;;;14.16;77.31
80335;BME280;69653;52.674;13.574;2023-06-10T04:08:13;100864.81;;;14.33;76.83
80335;BME280;69653;52.674;13.574;2023-06-10T04:10:41;100859.31;;;14.33;76.46
80335;BME280;69653;52.674;13.574;2023-06-10T04:13:11;100874.44;;;14.52;76.08
80335;BME280;69653;52.674;13.574;2023-06-10T04:15:48;100858.28;;;14.51;75.64
80335;BME280;69653;52.674;13.574;2023-06-10T04:18:21;100857.16;;;14.61;75.43
80335;BME280;69653;52.674;13.574;2023-06-10T04:20:51;100875.00;;;14.72;75.35
80335;BME280;69653;52.674;13.574;2023-06-10T04:23:19;100855.75;;;14.89;74.09
80335;BME280;69653;52.674;13.574;2023-06-10T04:25:45;100852.81;;;14.85;74.02
80335;BME280;69653;52.674;13.574;2023-06-10T04:28:12;100847.84;;;14.96;73.56
80335;BME280;69653;52.674;13.574;2023-06-10T04:30:46;100857.72;;;15.05;73.51
80335;BME280;69653;52.674;13.574;2023-06-10T04:33:13;100878.75;;;15.19;73.42
80335;BME280;69653;52.674;13.574;2023-06-10T04:35:59;100844.91;;;15.01;73.18
80335;BME280;69653;52.674;13.574;2023-06-10T04:38:29;100881.72;;;15.22;73.59
80335;BME280;69653;52.674;13.574;2023-06-10T04:40:58;100857.06;;;15.09;73.45
80335;BME280;69653;52.674;13.574;2023-06-10T04:43:25;100857.72;;;15.05;73.54
80335;BME280;69653;52.674;13.574;2023-06-10T04:45:57;100879.75;;;15.23;73.09
80335;BME280;69653;52.674;13.574;2023-06-10T04:48:31;100859.50;;;15.10;73.04
80335;BME280;69653;52.674;13.574;2023-06-10T04:51:06;100863.69;;;15.16;73.13
80335;BME280;69653;52.674;13.574;2023-06-10T04:53:35;100885.75;;;15.33;72.96
80335;BME280;69653;52.674;13.574;2023-06-10T04:56:03;100871.47;;;15.23;72.72
80335;BME280;69653;52.674;13.574;2023-06-10T04:58:33;100876.03;;;15.27;72.51
80335;BME280;69653;52.674;13.574;2023-06-10T05:01:12;100897.09;;;15.40;72.54
80335;BME280;69653;52.674;13.574;2023-06-10T05:03:43;100873.13;;;15.32;72.23
80335;BME280;69653;52.674;13.574;2023-06-10T05:06:11;100883.81;;;15.42;71.74
80335;BME280;69653;52.674;13.574;2023-06-10T05:08:39;100905.53;;;15.52;71.70
80335;BME280;69653;52.674;13.574;2023-06-10T05:11:06;100918.19;;;15.62;71.50
80335;BME280;69653;52.674;13.574;2023-06-10T05:13:33;100894.84;;;15.51;71.67
80335;BME280;69653;52.674;13.574;2023-06-10T05:15:59;100881.91;;;15.51;71.30
80335;BME280;69653;52.674;13.574;2023-06-10T05:18:26;100910.25;;;15.78;71.00
80335;BME280;69653;52.674;13.574;2023-06-10T05:20:53;100912.31;;;15.89;70.42
80335;BME280;69653;52.674;13.574;2023-06-10T05:23:22;100882.81;;;16.28;69.36
80335;BME280;69653;52.674;13.574;2023-06-10T05:25:49;100885.97;;;16.56;68.18
80335;BME280;69653;52.674;13.574;2023-06-10T05:28:16;100908.88;;;16.85;67.43
80335;BME280;69653;52.674;13.574;2023-06-10T05:30:42;100889.41;;;16.82;66.71
80335;BME280;69653;52.674;13.574;2023-06-10T05:33:09;100882.63;;;17.00;66.11
80335;BME280;69653;52.674;13.574;2023-06-10T05:35:36;100921.53;;;17.57;65.34
80335;BME280;69653;52.674;13.574;2023-06-10T05:38:03;100896.19;;;17.88;63.49
80335;BME280;69653;52.674;13.574;2023-06-10T05:40:29;100918.78;;;18.47;62.43
80335;BME280;69653;52.674;13.574;2023-06-10T05:42:59;100904.06;;;18.79;60.72
80335;BME280;69653;52.674;13.574;2023-06-10T05:45:26;100932.28;;;19.21;59.25
80335;BME280;69653;52.674;13.574;2023-06-10T05:47:53;100907.09;;;19.38;58.71
80335;BME280;69653;52.674;13.574;2023-06-10T05:50:21;100902.41;;;19.55;57.34
80335;BME280;69653;52.674;13.574;2023-06-10T05:52:48;100919.50;;;19.84;56.66
80335;BME280;69653;52.674;13.574;2023-06-10T05:55:16;100902.47;;;19.98;56.05
80335;BME280;69653;52.674;13.574;2023-06-10T05:57:45;100908.38;;;20.12;55.52
80335;BME280;69653;52.674;13.574;2023-06-10T06:00:12;100922.47;;;20.19;55.24
80335;BME280;69653;52.674;13.574;2023-06-10T06:02:39;100928.25;;;19.99;55.68
80335;BME280;69653;52.674;13.574;2023-06-10T06:05:06;100897.13;;;19.77;55.63
80335;BME280;69653;52.674;13.574;2023-06-10T06:07:32;100890.75;;;19.77;55.56
80335;BME280;69653;52.674;13.574;2023-06-10T06:10:01;100899.78;;;19.74;55.57
80335;BME280;69653;52.674;13.574;2023-06-10T06:12:28;100920.69;;;19.83;55.42
80335;BME280;69653;52.674;13.574;2023-06-10T06:14:57;100904.56;;;19.89;55.41
80335;BME280;69653;52.674;13.574;2023-06-10T06:17:25;100931.94;;;20.18;54.62
80335;BME280;69653;52.674;13.574;2023-06-10T06:19:51;100928.44;;;20.06;54.97
80335;BME280;69653;52.674;13.574;2023-06-10T06:22:18;100939.69;;;19.97;55.42
80335;BME280;69653;52.674;13.574;2023-06-10T06:24:47;100923.28;;;19.92;55.12
80335;BME280;69653;52.674;13.574;2023-06-10T06:27:15;100919.34;;;20.21;54.31
80335;BME280;69653;52.674;13.574;2023-06-10T06:29:44;100939.69;;;20.41;53.95
80335;BME280;69653;52.674;13.574;2023-06-10T06:32:11;100947.31;;;20.59;54.16
80335;BME280;69653;52.674;13.574;2023-06-10T06:34:40;100942.66;;;20.48;53.57
80335;BME280;69653;52.674;13.574;2023-06-10T06:37:09;100951.81;;;20.79;53.44
80335;BME280;69653;52.674;13.574;2023-06-10T06:39:36;100952.97;;;20.94;52.86
80335;BME280;69653;52.674;13.574;2023-06-10T06:42:02;100964.88;;;20.95;52.60
80335;BME280;69653;52.674;13.574;2023-06-10T06:44:29;100954.69;;;20.67;52.67
80335;BME280;69653;52.674;13.574;2023-06-10T06:46:55;100979.78;;;20.71;52.79
80335;BME280;69653;52.674;13.574;2023-06-10T06:49:22;100973.69;;;20.65;53.04
80335;BME280;69653;52.674;13.574;2023-06-10T06:51:49;100960.03;;;20.45;52.69
80335;BME280;69653;52.674;13.574;2023-06-10T06:54:16;100974.84;;;20.80;52.14
80335;BME280;69653;52.674;13.574;2023-06-10T06:56:43;100972.16;;;20.84;51.83
80335;BME280;69653;52.674;13.574;2023-06-10T06:59:10;100981.66;;;20.83;51.93
80335;BME280;69653;52.674;13.574;2023-06-10T07:01:39;100983.91;;;20.61;52.60
80335;BME280;69653;52.674;13.574;2023-06-10T07:04:09;100981.47;;;20.44;53.02
80335;BME280;69653;52.674;13.574;2023-06-10T07:06:37;100978.09;;;20.23;53.42
80335;BME280;69653;52.674;13.574;2023-06-10T07:09:07;100982.09;;;20.25;53.51
80335;BME280;69653;52.674;13.574;2023-06-10T07:11:38;100984.50;;;20.39;53.30
80335;BME280;69653;52.674;13.574;2023-06-10T07:14:04;100978.06;;;20.35;53.27
80335;BME280;69653;52.674;13.574;2023-06-10T07:16:34;101000.75;;;20.68;53.07
80335;BME280;69653;52.674;13.574;2023-06-10T07:19:01;100966.50;;;20.64;52.52
80335;BME280;69653;52.674;13.574;2023-06-10T07:21:31;100970.81;;;21.44;50.86
80335;BME280;69653;52.674;13.574;2023-06-10T07:24:03;100980.25;;;21.93;49.75
80335;BME280;69653;52.674;13.574;2023-06-10T07:26:32;100997.50;;;22.63;48.11
80335;BME280;69653;52.674;13.574;2023-06-10T07:28:59;101001.50;;;22.85;47.55
80335;BME280;69653;52.674;13.574;2023-06-10T07:31:26;100991.72;;;22.72;47.48
80335;BME280;69653;52.674;13.574;2023-06-10T07:33:58;100993.56;;;22.45;48.07
80335;BME280;69653;52.674;13.574;2023-06-10T07:36:40;101007.41;;;22.19;48.77
80335;BME280;69653;52.674;13.574;2023-06-10T07:39:49;101009.25;;;22.11;48.93
80335;BME280;69653;52.674;13.574;2023-06-10T07:42:41;100989.78;;;21.92;49.22
80335;BME280;69653;52.674;13.574;2023-06-10T07:46:04;100984.41;;;21.84;49.57
80335;BME280;69653;52.674;13.574;2023-06-10T07:49:00;100992.72;;;21.64;49.86
80335;BME280;69653;52.674;13.574;2023-06-10T07:51:54;101013.16;;;21.53;51.04
80335;BME280;69653;52.674;13.574;2023-06-10T07:54:21;101017.75;;;21.45;51.41
80335;BME280;69653;52.674;13.574;2023-06-10T07:56:57;100997.44;;;21.10;51.75
80335;BME280;69653;52.674;13.574;2023-06-10T07:59:27;101030.63;;;21.18;52.40
80335;BME280;69653;52.674;13.574;2023-06-10T08:01:56;101010.88;;;20.92;52.56
80335;BME280;69653;52.674;13.574;2023-06-10T08:04:24;101001.13;;;20.83;52.79
80335;BME280;69653;52.674;13.574;2023-06-10T08:06:55;101023.00;;;20.84;53.80
80335;BME280;69653;52.674;13.574;2023-06-10T08:09:23;101021.19;;;20.60;58.02
80335;BME280;69653;52.674;13.574;2023-06-10T08:11:49;101018.81;;;20.31;62.96
80335;BME280;69653;52.674;13.574;2023-06-10T08:14:18;101011.63;;;20.02;60.61
80335;BME280;69653;52.674;13.574;2023-06-10T08:16:46;101002.94;;;19.76;62.37
80335;BME280;69653;52.674;13.574;2023-06-10T08:19:14;101009.66;;;19.63;63.14
80335;BME280;69653;52.674;13.574;2023-06-10T08:21:42;101033.09;;;19.65;63.11
80335;BME280;69653;52.674;13.574;2023-06-10T08:24:14;101008.75;;;19.47;63.14
80335;BME280;69653;52.674;13.574;2023-06-10T08:26:44;101012.22;;;19.44;62.79
80335;BME280;69653;52.674;13.574;2023-06-10T08:29:13;101010.38;;;19.48;63.11
80335;BME280;69653;52.674;13.574;2023-06-10T08:31:44;101036.03;;;19.57;63.38
80335;BME280;69653;52.674;13.574;2023-06-10T08:34:14;101010.84;;;19.37;62.90
80335;BME280;69653;52.674;13.574;2023-06-10T08:36:57;101018.69;;;19.35;62.72
80335;BME280;69653;52.674;13.574;2023-06-10T08:39:26;101019.16;;;19.25;62.64
80335;BME280;69653;52.674;13.574;2023-06-10T08:42:33;101047.59;;;19.47;62.94
80335;BME280;69653;52.674;13.574;2023-06-10T08:45:06;101046.06;;;19.37;62.75
80335;BME280;69653;52.674;13.574;2023-06-10T08:47:36;101042.38;;;19.33;62.97
80335;BME280;69653;52.674;13.574;2023-06-10T08:50:08;101019.06;;;19.22;63.13
80335;BME280;69653;52.674;13.574;2023-06-10T08:52:38;101041.81;;;19.27;63.14
80335;BME280;69653;52.674;13.574;2023-06-10T08:55:23;101047.94;;;19.33;63.42
80335;BME280;69653;52.674;13.574;2023-06-10T08:57:59;101014.78;;;19.12;62.86
80335;BME280;69653;52.674;13.574;2023-06-10T09:00:26;101030.03;;;19.18;62.70
80335;BME280;69653;52.674;13.574;2023-06-10T09:02:52;101050.81;;;19.36;62.63
80335;BME280;69653;52.674;13.574;2023-06-10T09:05:18;101033.13;;;19.29;63.33
80335;BME280;69653;52.674;13.574;2023-06-10T09:07:45;101032.81;;;19.43;62.69
80335;BME280;69653;52.674;13.574;2023-06-10T09:10:11;101016.03;;;19.39;61.84
80335;BME280;69653;52.674;13.574;2023-06-10T09:12:36;101050.00;;;19.60;61.67
80335;BME280;69653;52.674;13.574;2023-06-10T09:15:03;101043.66;;;19.60;60.78
80335;BME280;69653;52.674;13.574;2023-06-10T09:17:29;101036.16;;;19.60;60.59
80335;BME280;69653;52.674;13.574;2023-06-10T09:19:55;101040.59;;;19.77;60.76
80335;BME280;69653;52.674;13.574;2023-06-10T09:22:22;101009.75;;;19.78;61.47
80335;BME280;69653;52.674;13.574;2023-06-10T09:24:48;101013.88;;;19.84;63.04
80335;BME280;69653;52.674;13.574;2023-06-10T09:27:13;101011.81;;;19.81;67.75
80335;BME280;69653;52.674;13.574;2023-06-10T09:29:55;101001.34;;;19.63;70.22
80335;BME280;69653;52.674;13.574;2023-06-10T09:32:20;101006.47;;;19.49;70.59
80335;BME280;69653;52.674;13.574;2023-06-10T09:34:47;101007.84;;;19.30;70.27
80335;BME280;69653;52.674;13.574;2023-06-10T09:37:13;101016.50;;;19.29;71.26
80335;BME280;69653;52.674;13.574;2023-06-10T09:39:44;101009.69;;;19.14;70.91
80335;BME280;69653;52.674;13.574;2023-06-10T09:42:18;101024.94;;;19.08;70.15
80335;BME280;69653;52.674;13.574;2023-06-10T09:44:51;101029.09;;;19.02;72.50
80335;BME280;69653;52.674;13.574;2023-06-10T09:47:23;101029.91;;;18.91;73.27
80335;BME280;69653;52.674;13.574;2023-06-10T09:49:49;101029.31;;;18.85;71.87
80335;BME280;69653;52.674;13.574;2023-06-10T09:52:24;101041.56;;;18.84;70.04
80335;BME280;69653;52.674;13.574;2023-06-10T09:54:51;101019.81;;;18.62;69.50
80335;BME280;69653;52.674;13.574;2023-06-10T09:57:17;101029.03;;;18.54;69.77
80335;BME280;69653;52.674;13.574;2023-06-10T09:59:43;101042.47;;;18.43;69.64
80335;BME280;69653;52.674;13.574;2023-06-10T10:02:15;101031.09;;;18.24;71.19
80335;BME280;69653;52.674;13.574;2023-06-10T10:04:41;101027.09;;;18.01;73.29
80335;BME280;69653;52.674;13.574;2023-06-10T10:07:07;101037.91;;;17.93;75.48
80335;BME280;69653;52.674;13.574;2023-06-10T10:09:35;101046.94;;;17.82;77.31
80335;BME280;69653;52.674;13.574;2023-06-10T10:12:01;101064.69;;;17.81;78.62
80335;BME280;69653;52.674;13.574;2023-06-10T10:14:28;101034.72;;;17.62;74.12
80335;BME280;69653;52.674;13.574;2023-06-10T10:16:57;101038.63;;;18.03;60.96
80335;BME280;69653;52.674;13.574;2023-06-10T10:19:28;101055.09;;;17.99;62.74
80335;BME280;69653;52.674;13.574;2023-06-10T10:21:57;101063.47;;;18.11;60.25
80335;BME280;69653;52.674;13.574;2023-06-10T10:24:33;101009.19;;;18.52;54.90
80335;BME280;69653;52.674;13.574;2023-06-10T10:27:04;101023.22;;;18.14;66.99
80335;BME280;69653;52.674;13.574;2023-06-10T10:29:38;101013.59;;;17.58;71.58
80335;BME280;69653;52.674;13.574;2023-06-10T10:32:06;101022.09;;;17.23;75.36
80335;BME280;69653;52.674;13.574;2023-06-10T10:35:04;101042.34;;;17.07;81.38
80335;BME280;69653;52.674;13.574;2023-06-10T10:37:32;101032.84;;;16.87;83.82
80335;BME280;69653;52.674;13.574;2023-06-10T10:40:00;101024.13;;;16.68;84.81
80335;BME280;69653;52.674;13.574;2023-06-10T10:42:27;101032.25;;;16.64;84.27
80335;BME280;69653;52.674;13.574;2023-06-10T10:44:53;101041.94;;;16.79;85.33
80335;BME280;69653;52.674;13.574;2023-06-10T10:47:21;101021.69;;;16.75;86.01
80335;BME280;69653;52.674;13.574;2023-06-10T10:49:48;101032.66;;;16.92;85.99
80335;BME280;69653;52.674;13.574;2023-06-10T10:52:15;101054.59;;;17.26;86.69
80335;BME280;69653;52.674;13.574;2023-06-10T10:54:44;101019.50;;;17.27;85.78
80335;BME280;69653;52.674;13.574;2023-06-10T10:57:15;101055.84;;;17.67;84.91
80335;BME280;69653;52.674;13.574;2023-06-10T10:59:57;101019.41;;;17.85;84.32
80335;BME280;69653;52.674;13.574;2023-06-10T11:05:06;101036.34;;;18.95;82.18
80335;BME280;69653;52.674;13.574;2023-06-10T11:07:33;101021.00;;;19.21;80.06
80335;BME280;69653;52.674;13.574;2023-06-10T11:10:06;101017.13;;;19.87;78.37
80335;BME280;69653;52.674;13.574;2023-06-10T11:15:09;101012.31;;;20.86;73.43
80335;BME280;69653;52.674;13.574;2023-06-10T11:17:35;101054.94;;;21.72;72.92
80335;BME280;69653;52.674;13.574;2023-06-10T11:20:00;101025.06;;;22.07;69.47
80335;BME280;69653;52.674;13.574;2023-06-10T11:22:25;101024.94;;;22.19;68.71
80335;BME280;69653;52.674;13.574;2023-06-10T11:24:51;101020.56;;;22.41;66.01
80335;BME280;69653;52.674;13.574;2023-06-10T11:27:18;101042.69;;;22.95;64.93
80335;BME280;69653;52.674;13.574;2023-06-10T11:32:24;101042.13;;;23.88;61.44
80335;BME280;69653;52.674;13.574;2023-06-10T11:34:54;101021.50;;;23.96;60.89
80335;BME280;69653;52.674;13.574;2023-06-10T11:37:20;101031.88;;;23.95;60.58
80335;BME280;69653;52.674;13.574;2023-06-10T11:39:46;101032.91;;;24.13;60.76
80335;BME280;69653;52.674;13.574;2023-06-10T11:42:12;101009.72;;;24.13;59.83
80335;BME280;69653;52.674;13.574;2023-06-10T11:44:37;101029.06;;;24.25;59.13
80335;BME280;69653;52.674;13.574;2023-06-10T11:47:03;101009.50;;;23.95;59.30
80335;BME280;69653;52.674;13.574;2023-06-10T11:49:29;101015.00;;;23.88;59.63
80335;BME280;69653;52.674;13.574;2023-06-10T11:51:54;101020.59;;;23.88;60.04
80335;BME280;69653;52.674;13.574;2023-06-10T11:54:20;101038.75;;;24.05;60.04
80335;BME280;69653;52.674;13.574;2023-06-10T11:56:47;100999.53;;;23.94;59.14
80335;BME280;69653;52.674;13.574;2023-06-10T11:59:13;101024.19;;;24.19;59.24
80335;BME280;69653;52.674;13.574;2023-06-10T12:01:43;101006.38;;;24.30;59.38
80335;BME280;69653;52.674;13.574;2023-06-10T12:04:13;101001.00;;;24.51;57.63
80335;BME280;69653;52.674;13.574;2023-06-10T12:06:42;100999.84;;;24.96;57.32
80335;BME280;69653;52.674;13.574;2023-06-10T12:09:25;101002.66;;;25.58;55.14
80335;BME280;69653;52.674;13.574;2023-06-10T12:11:54;100989.25;;;25.99;53.45
80335;BME280;69653;52.674;13.574;2023-06-10T12:14:55;101016.28;;;26.46;52.91
80335;BME280;69653;52.674;13.574;2023-06-10T12:20:00;100983.81;;;26.73;47.31
80335;BME280;69653;52.674;13.574;2023-06-10T12:22:25;100981.06;;;27.09;44.49
80335;BME280;69653;52.674;13.574;2023-06-10T12:24:58;101013.09;;;27.54;41.67
80335;BME280;69653;52.674;13.574;2023-06-10T12:27:25;100982.59;;;27.56;41.67
80335;BME280;69653;52.674;13.574;2023-06-10T12:29:51;100994.47;;;27.99;41.84
80335;BME280;69653;52.674;13.574;2023-06-10T12:32:19;100982.75;;;28.18;41.06
80335;BME280;69653;52.674;13.574;2023-06-10T12:34:45;100965.13;;;28.03;40.35
80335;BME280;69653;52.674;13.574;2023-06-10T12:37:12;100996.75;;;28.32;40.51
80335;BME280;69653;52.674;13.574;2023-06-10T12:39:41;100987.28;;;28.60;41.19
80335;BME280;69653;52.674;13.574;2023-06-10T12:42:12;100965.88;;;28.80;39.99
80335;BME280;69653;52.674;13.574;2023-06-10T12:44:40;100994.50;;;29.16;38.56
80335;BME280;69653;52.674;13.574;2023-06-10T12:47:10;100973.69;;;29.06;38.45
80335;BME280;69653;52.674;13.574;2023-06-10T12:49:37;100961.22;;;29.04;37.50
80335;BME280;69653;52.674;13.574;2023-06-10T12:52:04;100948.41;;;28.99;37.47
80335;BME280;69653;52.674;13.574;2023-06-10T12:54:29;100961.34;;;29.34;38.42
80335;BME280;69653;52.674;13.574;2023-06-10T12:56:54;100958.81;;;29.47;37.51
80335;BME280;69653;52.674;13.574;2023-06-10T12:59:20;100950.94;;;29.65;36.78
80335;BME280;69653;52.674;13.574;2023-06-10T13:01:51;100949.75;;;29.62;36.60
80335;BME280;69653;52.674;13.574;2023-06-10T13:04:17;100961.22;;;29.78;36.07
80335;BME280;69653;52.674;13.574;2023-06-10T13:06:43;100952.31;;;29.83;36.26
80335;BME280;69653;52.674;13.574;2023-06-10T13:09:09;100960.72;;;29.53;35.51